createdAt,value
2022-12-22T00:00:31.409Z,99.3
2022-12-22T00:01:31.469Z,99.6
2022-12-22T00:02:31.666Z,99.2
2022-12-22T00:03:31.562Z,99.8
2022-12-22T00:04:31.404Z,99.6
2022-12-22T00:05:31.412Z,99.7
2022-12-22T00:06:31.395Z,99.4
2022-12-22T00:07:31.396Z,99.4
2022-12-22T00:08:31.393Z,99.4
2022-12-22T00:09:31.410Z,99.3
2022-12-22T00:10:31.386Z,99.5
2022-12-22T00:11:31.394Z,99.2
2022-12-22T00:12:31.401Z,99.1
2022-12-22T00:13:31.445Z,99.3
2022-12-22T00:14:31.411Z,99.3
2022-12-22T00:15:31.421Z,99.3
2022-12-22T00:16:31.486Z,99.7
2022-12-22T00:17:31.413Z,99.7
2022-12-22T00:18:31.493Z,99.7
2022-12-22T00:19:31.449Z,99.7
2022-12-22T00:20:31.591Z,99.9
2022-12-22T00:21:31.628Z,99.7
2022-12-22T00:22:31.395Z,100
2022-12-22T00:23:31.407Z,100
2022-12-22T00:24:31.442Z,100
2022-12-22T00:25:31.401Z,100
2022-12-22T00:26:31.412Z,100
2022-12-22T00:27:31.411Z,100
2022-12-22T00:28:31.414Z,100
2022-12-22T00:29:31.406Z,100
2022-12-22T00:30:31.453Z,100
2022-12-22T00:31:31.402Z,100
2022-12-22T00:32:31.441Z,100
2022-12-22T00:33:31.403Z,100
2022-12-22T00:34:32.738Z,100
2022-12-22T00:35:31.398Z,100
2022-12-22T00:36:31.550Z,100
2022-12-22T00:37:31.416Z,100
2022-12-22T00:38:31.403Z,100
2022-12-22T00:39:31.452Z,100
2022-12-22T00:40:31.392Z,100
2022-12-22T00:41:31.408Z,100
2022-12-22T00:42:31.418Z,100
2022-12-22T00:43:31.424Z,100
2022-12-22T00:44:31.414Z,100
2022-12-22T00:45:31.479Z,100
2022-12-22T00:46:31.501Z,100
2022-12-22T00:47:31.421Z,100
2022-12-22T00:48:31.398Z,100
2022-12-22T00:49:31.392Z,100
2022-12-22T00:50:31.441Z,100
2022-12-22T00:51:31.405Z,100
2022-12-22T00:52:31.402Z,100
2022-12-22T00:53:31.396Z,100
2022-12-22T00:54:31.411Z,100
2022-12-22T00:55:31.400Z,100
2022-12-22T00:56:31.400Z,100
2022-12-22T00:57:31.387Z,100
2022-12-22T00:58:31.403Z,100
2022-12-22T00:59:31.406Z,100
2022-12-22T01:00:31.404Z,100
2022-12-22T01:01:31.536Z,100
2022-12-22T01:02:31.645Z,100
2022-12-22T01:03:31.572Z,100
2022-12-22T01:04:31.418Z,100
2022-12-22T01:05:31.400Z,100
2022-12-22T01:06:31.397Z,100
2022-12-22T01:07:31.401Z,100
2022-12-22T01:08:31.404Z,100
2022-12-22T01:09:31.395Z,100
2022-12-22T01:10:31.399Z,100
2022-12-22T01:11:31.397Z,100
2022-12-22T01:12:31.410Z,100
2022-12-22T01:13:31.388Z,100
2022-12-22T01:14:31.411Z,100
2022-12-22T01:15:31.462Z,100
2022-12-22T01:16:31.515Z,100
2022-12-22T01:17:31.398Z,100
2022-12-22T01:18:31.398Z,100
2022-12-22T01:19:31.393Z,100
2022-12-22T01:20:31.394Z,100
2022-12-22T01:21:31.406Z,100
2022-12-22T01:22:31.410Z,100
2022-12-22T01:23:31.382Z,100
2022-12-22T01:24:31.409Z,100
2022-12-22T01:25:31.402Z,100
2022-12-22T01:26:31.392Z,100
2022-12-22T01:27:31.468Z,100
2022-12-22T01:28:31.409Z,100
2022-12-22T01:29:31.418Z,100
2022-12-22T01:30:31.421Z,100
2022-12-22T01:31:31.414Z,100
2022-12-22T01:32:31.410Z,100
2022-12-22T01:33:31.410Z,100
2022-12-22T01:34:31.438Z,100
2022-12-22T01:35:31.405Z,100
2022-12-22T01:36:31.413Z,100
2022-12-22T01:37:31.421Z,100
2022-12-22T01:38:31.451Z,100
2022-12-22T01:39:31.407Z,100
2022-12-22T01:40:31.404Z,100
2022-12-22T01:41:31.413Z,100
2022-12-22T01:42:31.397Z,100
2022-12-22T01:43:31.396Z,100
2022-12-22T01:44:31.394Z,100
2022-12-22T01:45:31.410Z,100
2022-12-22T01:46:31.457Z,100
2022-12-22T01:47:31.392Z,100
2022-12-22T01:48:31.589Z,100
2022-12-22T01:49:31.399Z,100
2022-12-22T01:50:31.414Z,100
2022-12-22T01:51:31.401Z,100
2022-12-22T01:52:31.437Z,100
2022-12-22T01:53:31.416Z,100
2022-12-22T01:54:31.414Z,100
2022-12-22T01:55:31.422Z,100
2022-12-22T01:56:31.447Z,100
2022-12-22T01:57:31.409Z,100
2022-12-22T01:58:31.403Z,100
2022-12-22T01:59:31.479Z,100
2022-12-22T02:00:31.413Z,100
2022-12-22T02:01:31.506Z,100
2022-12-22T02:02:31.615Z,100
2022-12-22T02:03:31.513Z,100
2022-12-22T02:04:31.427Z,100
2022-12-22T02:05:31.542Z,100
2022-12-22T02:06:31.424Z,100
2022-12-22T02:07:31.400Z,100
2022-12-22T02:08:31.419Z,100
2022-12-22T02:09:31.397Z,100
2022-12-22T02:10:31.401Z,100
2022-12-22T02:11:31.405Z,100
2022-12-22T02:12:31.400Z,100
2022-12-22T02:13:31.411Z,100
2022-12-22T02:14:31.396Z,100
2022-12-22T02:15:31.412Z,100
2022-12-22T02:16:31.490Z,100
2022-12-22T02:17:31.391Z,100
2022-12-22T02:18:31.401Z,100
2022-12-22T02:19:31.415Z,100
2022-12-22T02:20:31.400Z,100
2022-12-22T02:21:31.469Z,100
2022-12-22T02:22:31.407Z,100
2022-12-22T02:23:31.413Z,100
2022-12-22T02:24:31.414Z,100
2022-12-22T02:25:31.398Z,100
2022-12-22T02:26:31.411Z,100
2022-12-22T02:27:31.433Z,100
2022-12-22T02:28:31.427Z,100
2022-12-22T02:29:31.410Z,100
2022-12-22T02:30:31.401Z,100
2022-12-22T02:31:31.493Z,100
2022-12-22T02:32:31.426Z,100
2022-12-22T02:33:31.415Z,100
2022-12-22T02:34:31.400Z,100
2022-12-22T02:35:31.428Z,100
2022-12-22T02:36:31.444Z,100
2022-12-22T02:37:31.412Z,100
2022-12-22T02:38:31.405Z,100
2022-12-22T02:39:31.409Z,100
2022-12-22T02:41:31.400Z,100
2022-12-22T02:42:31.470Z,100
2022-12-22T02:43:31.411Z,100
2022-12-22T02:44:31.405Z,100
2022-12-22T02:45:31.416Z,100
2022-12-22T02:46:31.470Z,100
2022-12-22T02:47:31.396Z,100
2022-12-22T02:48:31.404Z,100
2022-12-22T02:49:31.460Z,100
2022-12-22T02:50:31.403Z,100
2022-12-22T02:51:31.410Z,100
2022-12-22T02:52:31.414Z,100
2022-12-22T02:53:31.397Z,100
2022-12-22T02:54:31.412Z,100
2022-12-22T02:55:31.389Z,100
2022-12-22T02:56:31.476Z,100
2022-12-22T02:57:33.177Z,100
2022-12-22T02:58:31.421Z,100
2022-12-22T02:59:31.412Z,100
2022-12-22T03:00:31.388Z,100
2022-12-22T03:01:31.593Z,100
2022-12-22T03:02:31.625Z,100
2022-12-22T03:03:31.642Z,100
2022-12-22T03:04:31.411Z,100
2022-12-22T03:05:31.452Z,100
2022-12-22T03:06:31.409Z,100
2022-12-22T03:07:31.441Z,100
2022-12-22T03:08:31.417Z,100
2022-12-22T03:09:31.422Z,100
2022-12-22T03:10:31.558Z,100
2022-12-22T03:11:31.600Z,100
2022-12-22T03:12:31.461Z,100
2022-12-22T03:13:31.450Z,100
2022-12-22T03:14:31.438Z,100
2022-12-22T03:15:31.624Z,100
2022-12-22T03:16:31.447Z,100
2022-12-22T03:17:31.444Z,100
2022-12-22T03:18:31.404Z,100
2022-12-22T03:19:31.475Z,100
2022-12-22T03:20:31.425Z,100
2022-12-22T03:21:31.408Z,100
2022-12-22T03:22:31.406Z,100
2022-12-22T03:23:31.420Z,100
2022-12-22T03:24:31.424Z,100
2022-12-22T03:25:31.415Z,100
2022-12-22T03:26:31.444Z,100
2022-12-22T03:27:31.415Z,100
2022-12-22T03:28:31.395Z,100
2022-12-22T03:29:31.390Z,100
2022-12-22T03:30:31.440Z,100
2022-12-22T03:31:31.472Z,100
2022-12-22T03:32:31.397Z,100
2022-12-22T03:33:31.410Z,100
2022-12-22T03:34:31.415Z,100
2022-12-22T03:35:31.412Z,100
2022-12-22T03:36:31.429Z,100
2022-12-22T03:37:31.410Z,100
2022-12-22T03:38:31.451Z,100
2022-12-22T03:39:31.433Z,100
2022-12-22T03:40:31.407Z,100
2022-12-22T03:41:31.416Z,100
2022-12-22T03:42:31.407Z,100
2022-12-22T03:43:31.415Z,100
2022-12-22T03:44:31.399Z,100
2022-12-22T03:45:31.419Z,100
2022-12-22T03:46:31.522Z,100
2022-12-22T03:47:31.457Z,100
2022-12-22T03:48:31.413Z,100
2022-12-22T03:49:31.415Z,100
2022-12-22T03:50:31.404Z,100
2022-12-22T03:51:31.401Z,100
2022-12-22T03:52:31.406Z,100
2022-12-22T03:53:31.412Z,100
2022-12-22T03:54:31.477Z,100
2022-12-22T03:55:31.410Z,100
2022-12-22T03:56:31.434Z,100
2022-12-22T03:57:31.402Z,100
2022-12-22T03:58:31.415Z,100
2022-12-22T03:59:31.401Z,100
2022-12-22T04:00:31.412Z,100
2022-12-22T04:01:31.518Z,100
2022-12-22T04:02:31.505Z,100
2022-12-22T04:03:31.537Z,100
2022-12-22T04:04:31.391Z,100
2022-12-22T04:05:31.430Z,100
2022-12-22T04:06:31.435Z,100
2022-12-22T04:07:31.416Z,100
2022-12-22T04:08:31.419Z,100
2022-12-22T04:09:31.434Z,100
2022-12-22T04:10:31.395Z,100
2022-12-22T04:11:31.398Z,100
2022-12-22T04:12:31.410Z,100
2022-12-22T04:13:31.402Z,100
2022-12-22T04:14:34.369Z,100
2022-12-22T04:15:31.477Z,100
2022-12-22T04:16:31.525Z,100
2022-12-22T04:17:31.395Z,100
2022-12-22T04:18:31.412Z,100
2022-12-22T04:19:31.427Z,100
2022-12-22T04:20:31.417Z,100
2022-12-22T04:21:31.423Z,100
2022-12-22T04:22:31.442Z,100
2022-12-22T04:23:31.411Z,100
2022-12-22T04:24:31.419Z,100
2022-12-22T04:25:31.401Z,100
2022-12-22T04:26:31.426Z,100
2022-12-22T04:27:31.404Z,100
2022-12-22T04:28:31.469Z,100
2022-12-22T04:29:31.444Z,100
2022-12-22T04:30:31.420Z,100
2022-12-22T04:31:31.454Z,100
2022-12-22T04:32:31.409Z,100
2022-12-22T04:33:31.428Z,100
2022-12-22T04:34:31.440Z,100
2022-12-22T04:35:31.415Z,100
2022-12-22T04:36:31.452Z,100
2022-12-22T04:37:31.403Z,100
2022-12-22T04:38:31.417Z,100
2022-12-22T04:39:31.414Z,100
2022-12-22T04:40:31.511Z,100
2022-12-22T04:41:31.443Z,100
2022-12-22T04:42:31.431Z,100
2022-12-22T04:43:31.497Z,100
2022-12-22T04:44:31.399Z,100
2022-12-22T04:45:31.480Z,100
2022-12-22T04:46:31.522Z,100
2022-12-22T04:47:31.420Z,100
2022-12-22T04:48:31.406Z,100
2022-12-22T04:49:31.559Z,100
2022-12-22T04:50:31.479Z,100
2022-12-22T04:51:31.403Z,100
2022-12-22T04:52:31.412Z,100
2022-12-22T04:53:31.424Z,100
2022-12-22T04:54:31.426Z,100
2022-12-22T04:55:31.427Z,100
2022-12-22T04:56:31.403Z,100
2022-12-22T04:57:34.309Z,100
2022-12-22T04:58:31.412Z,100
2022-12-22T04:59:31.420Z,100
2022-12-22T05:00:31.408Z,100
2022-12-22T05:01:31.492Z,100
2022-12-22T05:02:31.574Z,100
2022-12-22T05:03:31.520Z,100
2022-12-22T05:04:31.409Z,100
2022-12-22T05:05:31.406Z,100
2022-12-22T05:06:31.445Z,100
2022-12-22T05:07:31.423Z,100
2022-12-22T05:08:31.444Z,100
2022-12-22T05:09:31.434Z,100
2022-12-22T05:10:31.407Z,100
2022-12-22T05:11:31.507Z,100
2022-12-22T05:12:31.404Z,100
2022-12-22T05:13:31.410Z,100
2022-12-22T05:14:31.406Z,100
2022-12-22T05:15:31.424Z,100
2022-12-22T05:16:31.528Z,100
2022-12-22T05:17:31.416Z,100
2022-12-22T05:18:31.482Z,100
2022-12-22T05:19:31.400Z,100
2022-12-22T05:21:31.391Z,100
2022-12-22T05:22:31.397Z,100
2022-12-22T05:23:31.418Z,100
2022-12-22T05:24:31.411Z,100
2022-12-22T05:25:35.313Z,100
2022-12-22T05:26:31.407Z,100
2022-12-22T05:27:31.425Z,100
2022-12-22T05:28:31.421Z,100
2022-12-22T05:29:31.428Z,100
2022-12-22T05:30:31.459Z,100
2022-12-22T05:31:31.521Z,100
2022-12-22T05:32:31.422Z,100
2022-12-22T05:33:31.433Z,100
2022-12-22T05:34:31.467Z,100
2022-12-22T05:35:31.446Z,100
2022-12-22T05:36:31.403Z,100
2022-12-22T05:37:31.533Z,100
2022-12-22T05:38:31.434Z,100
2022-12-22T05:39:31.395Z,100
2022-12-22T05:40:31.412Z,100
2022-12-22T05:41:31.412Z,100
2022-12-22T05:42:31.429Z,100
2022-12-22T05:43:31.415Z,100
2022-12-22T05:44:31.430Z,100
2022-12-22T05:45:31.438Z,100
2022-12-22T05:46:31.466Z,100
2022-12-22T05:47:31.404Z,100
2022-12-22T05:48:37.453Z,100
2022-12-22T05:49:31.420Z,100
2022-12-22T05:50:31.413Z,100
2022-12-22T05:51:31.411Z,100
2022-12-22T05:52:31.404Z,100
2022-12-22T05:53:31.417Z,100
2022-12-22T05:54:31.400Z,100
2022-12-22T05:55:31.459Z,100
2022-12-22T05:56:31.420Z,100
2022-12-22T05:57:31.404Z,100
2022-12-22T05:58:31.424Z,100
2022-12-22T05:59:31.416Z,100
2022-12-22T06:00:31.435Z,100
2022-12-22T06:01:31.442Z,100
2022-12-22T06:02:31.587Z,100
2022-12-22T06:03:31.780Z,100
2022-12-22T06:04:31.505Z,100
2022-12-22T06:05:31.425Z,100
2022-12-22T06:06:31.410Z,100
2022-12-22T06:07:31.431Z,100
2022-12-22T06:08:31.430Z,100
2022-12-22T06:09:31.456Z,100
2022-12-22T06:10:31.427Z,100
2022-12-22T06:11:31.404Z,100
2022-12-22T06:12:31.405Z,100
2022-12-22T06:13:31.439Z,100
2022-12-22T06:14:31.410Z,100
2022-12-22T06:15:31.413Z,100
2022-12-22T06:16:31.550Z,100
2022-12-22T06:17:31.432Z,100
2022-12-22T06:18:31.418Z,100
2022-12-22T06:19:31.419Z,100
2022-12-22T06:20:31.410Z,100
2022-12-22T06:21:31.405Z,100
2022-12-22T06:22:31.427Z,100
2022-12-22T06:23:31.411Z,100
2022-12-22T06:24:31.424Z,100
2022-12-22T06:25:31.446Z,100
2022-12-22T06:26:31.446Z,100
2022-12-22T06:27:31.419Z,100
2022-12-22T06:28:31.413Z,100
2022-12-22T06:29:31.404Z,100
2022-12-22T06:30:33.857Z,100
2022-12-22T06:31:31.496Z,100
2022-12-22T06:32:31.411Z,100
2022-12-22T06:33:31.407Z,100
2022-12-22T06:34:31.437Z,100
2022-12-22T06:35:31.410Z,100
2022-12-22T06:36:31.399Z,100
2022-12-22T06:37:31.409Z,100
2022-12-22T06:38:31.426Z,100
2022-12-22T06:39:31.408Z,100
2022-12-22T06:40:31.421Z,100
2022-12-22T06:41:31.419Z,100
2022-12-22T06:42:31.409Z,100
2022-12-22T06:43:31.429Z,100
2022-12-22T06:44:31.501Z,100
2022-12-22T06:45:31.417Z,100
2022-12-22T06:46:31.473Z,100
2022-12-22T06:47:31.413Z,100
2022-12-22T06:48:31.414Z,100
2022-12-22T06:49:31.406Z,100
2022-12-22T06:50:31.414Z,100
2022-12-22T06:51:31.472Z,100
2022-12-22T06:52:31.417Z,100
2022-12-22T06:53:31.404Z,100
2022-12-22T06:54:31.419Z,100
2022-12-22T06:55:31.412Z,100
2022-12-22T06:56:31.426Z,100
2022-12-22T06:57:31.414Z,100
2022-12-22T06:58:31.416Z,100
2022-12-22T06:59:31.412Z,100
2022-12-22T07:00:31.428Z,100
2022-12-22T07:01:31.553Z,100
2022-12-22T07:02:31.645Z,100
2022-12-22T07:03:31.468Z,100
2022-12-22T07:04:31.422Z,100
2022-12-22T07:05:31.415Z,100
2022-12-22T07:06:31.433Z,100
2022-12-22T07:07:31.429Z,100
2022-12-22T07:08:31.423Z,100
2022-12-22T07:09:31.401Z,100
2022-12-22T07:10:31.419Z,100
2022-12-22T07:11:31.409Z,100
2022-12-22T07:12:31.397Z,100
2022-12-22T07:13:31.416Z,100
2022-12-22T07:14:31.427Z,100
2022-12-22T07:15:31.548Z,100
2022-12-22T07:16:31.474Z,100
2022-12-22T07:17:31.483Z,100
2022-12-22T07:18:31.414Z,100
2022-12-22T07:19:31.487Z,100
2022-12-22T07:20:31.421Z,100
2022-12-22T07:21:31.447Z,100
2022-12-22T07:22:31.424Z,100
2022-12-22T07:23:31.419Z,100
2022-12-22T07:24:31.416Z,100
2022-12-22T07:25:31.415Z,100
2022-12-22T07:26:31.488Z,100
2022-12-22T07:27:31.420Z,100
2022-12-22T07:28:31.421Z,100
2022-12-22T07:29:31.410Z,100
2022-12-22T07:30:31.425Z,100
2022-12-22T07:31:31.482Z,100
2022-12-22T07:32:31.426Z,100
2022-12-22T07:33:31.412Z,100
2022-12-22T07:34:31.427Z,100
2022-12-22T07:35:31.414Z,100
2022-12-22T07:36:31.414Z,100
2022-12-22T07:37:31.422Z,100
2022-12-22T07:38:31.421Z,100
2022-12-22T07:39:31.416Z,100
2022-12-22T07:40:31.419Z,100
2022-12-22T07:41:31.440Z,100
2022-12-22T07:42:31.446Z,100
2022-12-22T07:43:31.419Z,100
2022-12-22T07:44:31.418Z,100
2022-12-22T07:45:31.411Z,100
2022-12-22T07:46:31.484Z,100
2022-12-22T07:47:35.199Z,100
2022-12-22T07:48:31.445Z,100
2022-12-22T07:49:31.421Z,100
2022-12-22T07:50:31.418Z,100
2022-12-22T07:51:31.441Z,100
2022-12-22T07:52:31.429Z,100
2022-12-22T07:53:31.413Z,100
2022-12-22T07:54:35.201Z,100
2022-12-22T07:55:31.435Z,100
2022-12-22T07:56:31.448Z,100
2022-12-22T07:57:31.419Z,100
2022-12-22T07:58:31.432Z,100
2022-12-22T07:59:31.451Z,100
2022-12-22T08:00:31.423Z,100
2022-12-22T08:01:31.648Z,100
2022-12-22T08:02:36.934Z,100
2022-12-22T08:03:31.427Z,100
2022-12-22T08:04:31.440Z,100
2022-12-22T08:05:31.414Z,100
2022-12-22T08:06:31.428Z,100
2022-12-22T08:07:31.414Z,100
2022-12-22T08:08:31.424Z,100
2022-12-22T08:09:31.432Z,100
2022-12-22T08:10:31.421Z,100
2022-12-22T08:11:31.413Z,100
2022-12-22T08:12:31.466Z,100
2022-12-22T08:13:31.439Z,100
2022-12-22T08:14:31.420Z,100
2022-12-22T08:15:31.427Z,100
2022-12-22T08:16:31.557Z,100
2022-12-22T08:17:31.442Z,100
2022-12-22T08:18:31.425Z,100
2022-12-22T08:19:31.418Z,100
2022-12-22T08:20:31.435Z,100
2022-12-22T08:21:31.417Z,100
2022-12-22T08:22:31.473Z,100
2022-12-22T08:23:31.439Z,100
2022-12-22T08:24:31.429Z,100
2022-12-22T08:25:31.420Z,100
2022-12-22T08:26:31.419Z,100
2022-12-22T08:27:31.421Z,100
2022-12-22T08:28:31.430Z,100
2022-12-22T08:29:31.436Z,100
2022-12-22T08:30:31.420Z,100
2022-12-22T08:31:31.511Z,100
2022-12-22T08:32:31.501Z,100
2022-12-22T08:33:31.431Z,100
2022-12-22T08:34:31.446Z,100
2022-12-22T08:35:31.414Z,100
2022-12-22T08:36:31.415Z,100
2022-12-22T08:37:31.437Z,100
2022-12-22T08:38:31.466Z,100
2022-12-22T08:39:31.420Z,100
2022-12-22T08:41:31.439Z,100
2022-12-22T08:42:31.556Z,100
2022-12-22T08:43:31.440Z,100
2022-12-22T08:44:31.428Z,100
2022-12-22T08:45:31.531Z,100
2022-12-22T08:46:31.436Z,100
2022-12-22T08:47:31.591Z,100
2022-12-22T08:48:31.448Z,100
2022-12-22T08:49:31.432Z,100
2022-12-22T08:50:31.426Z,100
2022-12-22T08:51:31.419Z,100
2022-12-22T08:52:31.425Z,100
2022-12-22T08:54:03.763Z,100
2022-12-22T08:54:31.411Z,100
2022-12-22T08:55:31.430Z,100
2022-12-22T08:56:31.451Z,100
2022-12-22T08:57:31.426Z,100
2022-12-22T08:58:31.417Z,100
2022-12-22T08:59:31.439Z,100
2022-12-22T09:00:31.449Z,100
2022-12-22T09:01:31.557Z,100
2022-12-22T09:02:31.552Z,100
2022-12-22T09:03:31.511Z,100
2022-12-22T09:04:31.436Z,100
2022-12-22T09:05:31.428Z,100
2022-12-22T09:06:36.544Z,100
2022-12-22T09:07:31.456Z,100
2022-12-22T09:08:31.428Z,100
2022-12-22T09:09:31.440Z,100
2022-12-22T09:10:31.413Z,100
2022-12-22T09:11:31.478Z,100
2022-12-22T09:12:31.427Z,100
2022-12-22T09:13:31.493Z,100
2022-12-22T09:14:31.432Z,100
2022-12-22T09:15:31.440Z,100
2022-12-22T09:16:31.567Z,100
2022-12-22T09:17:31.418Z,100
2022-12-22T09:18:31.419Z,100
2022-12-22T09:19:31.459Z,100
2022-12-22T09:20:31.488Z,100
2022-12-22T09:21:31.417Z,100
2022-12-22T09:22:31.435Z,100
2022-12-22T09:23:31.446Z,100
2022-12-22T09:24:31.434Z,100
2022-12-22T09:25:31.420Z,100
2022-12-22T09:26:31.472Z,100
2022-12-22T09:27:31.426Z,100
2022-12-22T09:28:31.414Z,100
2022-12-22T09:29:31.459Z,100
2022-12-22T09:30:31.425Z,100
2022-12-22T09:31:31.511Z,100
2022-12-22T09:32:31.416Z,100
2022-12-22T09:33:31.434Z,100
2022-12-22T09:34:31.512Z,100
2022-12-22T09:35:31.418Z,100
2022-12-22T09:36:31.522Z,100
2022-12-22T09:37:31.450Z,100
2022-12-22T09:38:31.433Z,100
2022-12-22T09:39:31.420Z,100
2022-12-22T09:40:31.426Z,100
2022-12-22T09:41:31.558Z,100
2022-12-22T09:42:31.459Z,100
2022-12-22T09:43:31.431Z,100
2022-12-22T09:44:31.436Z,100
2022-12-22T09:45:31.473Z,100
2022-12-22T09:46:31.546Z,100
2022-12-22T09:47:31.431Z,100
2022-12-22T09:48:31.472Z,100
2022-12-22T09:49:31.461Z,100
2022-12-22T09:50:31.459Z,100
2022-12-22T09:51:31.424Z,100
2022-12-22T09:52:31.430Z,100
2022-12-22T09:53:31.416Z,100
2022-12-22T09:54:31.439Z,100
2022-12-22T09:55:31.538Z,100
2022-12-22T09:56:31.418Z,100
2022-12-22T09:57:31.434Z,100
2022-12-22T09:58:31.433Z,100
2022-12-22T09:59:31.416Z,100
2022-12-22T10:00:31.428Z,100
2022-12-22T10:01:31.664Z,100
2022-12-22T10:02:31.450Z,100
2022-12-22T10:03:31.541Z,100
2022-12-22T10:04:31.499Z,100
2022-12-22T10:05:31.425Z,100
2022-12-22T10:06:31.414Z,100
2022-12-22T10:07:31.420Z,100
2022-12-22T10:08:31.425Z,100
2022-12-22T10:09:50.875Z,100
2022-12-22T10:10:31.425Z,100
2022-12-22T10:11:31.469Z,100
2022-12-22T10:12:31.427Z,100
2022-12-22T10:13:31.448Z,100
2022-12-22T10:14:31.579Z,100
2022-12-22T10:15:31.448Z,100
2022-12-22T10:16:31.514Z,100
2022-12-22T10:17:31.465Z,100
2022-12-22T10:18:31.611Z,100
2022-12-22T10:19:31.469Z,100
2022-12-22T10:20:31.427Z,100
2022-12-22T10:21:31.510Z,100
2022-12-22T10:22:31.433Z,100
2022-12-22T10:23:31.428Z,100
2022-12-22T10:24:31.447Z,100
2022-12-22T10:25:45.023Z,100
2022-12-22T10:26:32.052Z,100
2022-12-22T10:27:31.420Z,100
2022-12-22T10:28:31.429Z,100
2022-12-22T10:29:31.430Z,100
2022-12-22T10:30:31.432Z,100
2022-12-22T10:31:31.527Z,100
2022-12-22T10:32:31.430Z,100
2022-12-22T10:33:31.430Z,100
2022-12-22T10:34:31.428Z,100
2022-12-22T10:35:31.430Z,100
2022-12-22T10:36:31.421Z,100
2022-12-22T10:37:31.435Z,100
2022-12-22T10:38:31.433Z,100
2022-12-22T10:39:31.415Z,100
2022-12-22T10:40:31.421Z,100
2022-12-22T10:41:31.430Z,100
2022-12-22T10:42:31.434Z,100
2022-12-22T10:43:31.455Z,100
2022-12-22T10:44:31.438Z,100
2022-12-22T10:45:31.558Z,100
2022-12-22T10:46:31.580Z,100
2022-12-22T10:47:31.422Z,100
2022-12-22T10:48:31.443Z,100
2022-12-22T10:49:31.440Z,100
2022-12-22T10:50:31.429Z,100
2022-12-22T10:51:31.423Z,100
2022-12-22T10:52:31.904Z,100
2022-12-22T10:53:31.444Z,100
2022-12-22T10:54:31.440Z,100
2022-12-22T10:55:31.438Z,100
2022-12-22T10:56:31.427Z,100
2022-12-22T10:57:31.421Z,100
2022-12-22T10:58:31.422Z,100
2022-12-22T10:59:31.434Z,100
2022-12-22T11:00:31.466Z,100
2022-12-22T11:01:31.570Z,100
2022-12-22T11:02:31.675Z,100
2022-12-22T11:03:31.650Z,100
2022-12-22T11:04:31.424Z,100
2022-12-22T11:05:31.438Z,100
2022-12-22T11:06:31.421Z,100
2022-12-22T11:07:31.441Z,100
2022-12-22T11:08:31.464Z,100
2022-12-22T11:09:34.607Z,100
2022-12-22T11:10:31.423Z,100
2022-12-22T11:11:31.440Z,100
2022-12-22T11:12:31.474Z,100
2022-12-22T11:13:31.435Z,100
2022-12-22T11:14:31.421Z,100
2022-12-22T11:15:31.490Z,100
2022-12-22T11:16:31.500Z,100
2022-12-22T11:17:31.420Z,100
2022-12-22T11:18:31.445Z,100
2022-12-22T11:19:31.438Z,100
2022-12-22T11:20:31.430Z,100
2022-12-22T11:21:31.483Z,100
2022-12-22T11:22:31.433Z,100
2022-12-22T11:23:31.486Z,100
2022-12-22T11:24:31.432Z,100
2022-12-22T11:25:31.435Z,100
2022-12-22T11:26:31.427Z,100
2022-12-22T11:27:31.427Z,100
2022-12-22T11:28:31.444Z,100
2022-12-22T11:29:31.437Z,100
2022-12-22T11:30:31.512Z,100
2022-12-22T11:31:31.514Z,100
2022-12-22T11:32:31.420Z,100
2022-12-22T11:33:31.431Z,100
2022-12-22T11:34:31.433Z,100
2022-12-22T11:35:31.522Z,100
2022-12-22T11:36:31.423Z,100
2022-12-22T11:37:31.421Z,100
2022-12-22T11:38:31.441Z,100
2022-12-22T11:39:31.467Z,100
2022-12-22T11:40:31.428Z,100
2022-12-22T11:41:31.419Z,100
2022-12-22T11:42:31.496Z,100
2022-12-22T11:43:31.464Z,100
2022-12-22T11:44:31.426Z,100
2022-12-22T11:45:31.444Z,100
2022-12-22T11:46:31.513Z,100
2022-12-22T11:47:31.427Z,100
2022-12-22T11:48:31.439Z,100
2022-12-22T11:49:31.484Z,100
2022-12-22T11:51:02.159Z,100
2022-12-22T11:51:31.447Z,100
2022-12-22T11:52:31.449Z,100
2022-12-22T11:53:31.450Z,100
2022-12-22T11:54:31.429Z,100
2022-12-22T11:55:31.440Z,100
2022-12-22T11:56:31.469Z,100
2022-12-22T11:57:31.425Z,100
2022-12-22T11:58:31.447Z,100
2022-12-22T11:59:31.464Z,100
2022-12-22T12:00:56.171Z,100
2022-12-22T12:01:31.484Z,100
2022-12-22T12:02:31.638Z,100
2022-12-22T12:03:31.620Z,100
2022-12-22T12:04:31.545Z,100
2022-12-22T12:05:31.464Z,100
2022-12-22T12:06:31.466Z,100
2022-12-22T12:07:31.445Z,100
2022-12-22T12:08:31.432Z,100
2022-12-22T12:09:31.447Z,100
2022-12-22T12:10:31.463Z,100
2022-12-22T12:11:31.423Z,100
2022-12-22T12:12:31.443Z,100
2022-12-22T12:13:36.741Z,100
2022-12-22T12:14:31.420Z,100
2022-12-22T12:15:31.517Z,100
2022-12-22T12:16:31.446Z,100
2022-12-22T12:17:31.440Z,100
2022-12-22T12:18:31.449Z,100
2022-12-22T12:19:31.455Z,100
2022-12-22T12:20:31.454Z,100
2022-12-22T12:21:31.434Z,100
2022-12-22T12:22:31.452Z,100
2022-12-22T12:23:31.430Z,100
2022-12-22T12:24:31.441Z,99.8
2022-12-22T12:25:31.455Z,99.4
2022-12-22T12:26:31.457Z,100
2022-12-22T12:27:31.428Z,99.8
2022-12-22T12:28:31.441Z,99.1
2022-12-22T12:29:31.442Z,98.8
2022-12-22T12:30:39.451Z,99
2022-12-22T12:31:31.480Z,99.1
2022-12-22T12:32:31.427Z,99.5
2022-12-22T12:33:31.432Z,99.4
2022-12-22T12:34:31.435Z,99
2022-12-22T12:35:31.428Z,98.5
2022-12-22T12:36:31.435Z,98.4
2022-12-22T12:37:31.426Z,98.5
2022-12-22T12:39:05.167Z,98.1
2022-12-22T12:39:31.433Z,98
2022-12-22T12:40:31.447Z,97.6
2022-12-22T12:41:31.490Z,97.2
2022-12-22T12:42:31.434Z,97.8
2022-12-22T12:43:31.418Z,98.4
2022-12-22T12:44:31.446Z,98.5
2022-12-22T12:45:31.460Z,98
2022-12-22T12:46:31.519Z,97.8
2022-12-22T12:47:31.435Z,98
2022-12-22T12:48:31.430Z,98.4
2022-12-22T12:49:31.470Z,99.3
2022-12-22T12:50:31.432Z,99.2
2022-12-22T12:51:31.457Z,98.6
2022-12-22T12:52:31.472Z,98.5
2022-12-22T12:53:31.423Z,98.4
2022-12-22T12:54:31.439Z,97.9
2022-12-22T12:55:32.399Z,98
2022-12-22T12:56:31.430Z,97.9
2022-12-22T12:57:31.428Z,98.4
2022-12-22T12:58:31.445Z,99.2
2022-12-22T12:59:31.474Z,99.8
2022-12-22T13:00:31.460Z,99.7
2022-12-22T13:01:31.687Z,99
2022-12-22T13:02:31.614Z,99.1
2022-12-22T13:04:31.508Z,100
2022-12-22T13:05:31.431Z,100
2022-12-22T13:06:31.454Z,100
2022-12-22T13:08:31.541Z,99.9
2022-12-22T13:09:58.028Z,100
2022-12-22T13:10:31.462Z,100
2022-12-22T13:12:10.545Z,99.5
2022-12-22T13:12:31.456Z,98.6
2022-12-22T13:13:31.475Z,98.8
2022-12-22T13:14:31.501Z,98.7
2022-12-22T13:15:31.484Z,98
2022-12-22T13:16:31.533Z,97.1
2022-12-22T13:17:31.517Z,96.8
2022-12-22T13:18:31.455Z,97.4
2022-12-22T13:19:31.424Z,97.5
2022-12-22T13:20:31.441Z,97.9
2022-12-22T13:21:52.290Z,97.9
2022-12-22T13:22:31.512Z,97.2
2022-12-22T13:23:40.984Z,97.7
2022-12-22T13:24:31.436Z,97
2022-12-22T13:25:31.493Z,97.4
2022-12-22T13:26:31.431Z,97.9
2022-12-22T13:27:31.437Z,98.2
2022-12-22T13:28:31.447Z,97.8
2022-12-22T13:29:31.459Z,97.9
2022-12-22T13:30:31.450Z,97.4
2022-12-22T13:31:31.482Z,97.4
2022-12-22T13:32:31.443Z,97
2022-12-22T13:33:31.431Z,98
2022-12-22T13:34:31.442Z,97.5
2022-12-22T13:35:33.944Z,97.1
2022-12-22T13:36:31.436Z,97.3
2022-12-22T13:37:31.434Z,97.3
2022-12-22T13:38:31.515Z,97.9
2022-12-22T13:39:31.455Z,98
2022-12-22T13:41:31.519Z,97.6
2022-12-22T13:42:50.158Z,97.1
2022-12-22T13:44:04.064Z,97.5
2022-12-22T13:45:18.177Z,97.5
2022-12-22T13:46:32.276Z,95.8
2022-12-22T13:47:46.362Z,95.1
2022-12-22T13:48:25.482Z,95.1
2022-12-22T13:49:02.512Z,94.7
2022-12-22T13:50:31.445Z,93.9